sensor_id;sensor_type;location;lat;lon;timestamp;P1;durP1;ratioP1;P2;durP2;ratioP2
31206;SDS011;17834;52.992;8.856;2023-01-05T00:00:24;9.27;;;1.85;;
31206;SDS011;17834;52.992;8.856;2023-01-05T00:02:50;8.63;;;1.65;;
31206;SDS011;17834;52.992;8.856;2023-01-05T00:05:16;10.98;;;2.78;;
31206;SDS011;17834;52.992;8.856;2023-01-05T00:07:42;9.95;;;1.70;;
31206;SDS011;17834;52.992;8.856;2023-01-05T00:10:08;9.85;;;3.00;;
31206;SDS011;17834;52.992;8.856;2023-01-05T00:12:54;10.68;;;2.08;;
31206;SDS011;17834;52.992;8.856;2023-01-05T00:15:38;14.05;;;2.05;;
31206;SDS011;17834;52.992;8.856;2023-01-05T00:18:23;11.50;;;2.03;;
31206;SDS011;17834;52.992;8.856;2023-01-05T00:21:11;11.40;;;1.77;;
31206;SDS011;17834;52.992;8.856;2023-01-05T00:23:57;11.40;;;1.50;;
31206;SDS011;17834;52.992;8.856;2023-01-05T00:26:23;9.32;;;1.98;;
31206;SDS011;17834;52.992;8.856;2023-01-05T00:28:49;12.85;;;2.45;;
31206;SDS011;17834;52.992;8.856;2023-01-05T00:31:14;11.90;;;1.70;;
31206;SDS011;17834;52.992;8.856;2023-01-05T00:33:41;12.07;;;2.35;;
31206;SDS011;17834;52.992;8.856;2023-01-05T00:36:09;10.10;;;1.85;;
31206;SDS011;17834;52.992;8.856;2023-01-05T00:38:35;11.10;;;2.13;;
31206;SDS011;17834;52.992;8.856;2023-01-05T00:41:01;11.05;;;1.92;;
31206;SDS011;17834;52.992;8.856;2023-01-05T00:43:27;9.82;;;1.90;;
31206;SDS011;17834;52.992;8.856;2023-01-05T00:45:53;15.95;;;2.25;;
31206;SDS011;17834;52.992;8.856;2023-01-05T00:48:19;8.48;;;2.10;;
31206;SDS011;17834;52.992;8.856;2023-01-05T00:50:48;5.55;;;1.50;;
31206;SDS011;17834;52.992;8.856;2023-01-05T00:53:14;7.80;;;1.60;;
31206;SDS011;17834;52.992;8.856;2023-01-05T00:55:40;9.90;;;1.90;;
31206;SDS011;17834;52.992;8.856;2023-01-05T00:58:06;11.05;;;1.90;;
31206;SDS011;17834;52.992;8.856;2023-01-05T01:00:32;6.97;;;1.80;;
31206;SDS011;17834;52.992;8.856;2023-01-05T01:02:58;13.30;;;2.03;;
31206;SDS011;17834;52.992;8.856;2023-01-05T01:05:24;11.82;;;2.15;;
31206;SDS011;17834;52.992;8.856;2023-01-05T01:07:50;5.78;;;1.83;;
31206;SDS011;17834;52.992;8.856;2023-01-05T01:10:16;10.10;;;3.28;;
31206;SDS011;17834;52.992;8.856;2023-01-05T01:12:42;3.10;;;1.52;;
31206;SDS011;17834;52.992;8.856;2023-01-05T01:15:08;5.38;;;1.52;;
31206;SDS011;17834;52.992;8.856;2023-01-05T01:17:34;9.73;;;1.40;;
31206;SDS011;17834;52.992;8.856;2023-01-05T01:20:00;9.32;;;2.10;;
31206;SDS011;17834;52.992;8.856;2023-01-05T01:22:26;9.35;;;1.90;;
31206;SDS011;17834;52.992;8.856;2023-01-05T01:24:52;9.07;;;2.17;;
31206;SDS011;17834;52.992;8.856;2023-01-05T01:27:18;4.20;;;1.35;;
31206;SDS011;17834;52.992;8.856;2023-01-05T01:29:44;3.83;;;1.15;;
31206;SDS011;17834;52.992;8.856;2023-01-05T01:32:10;11.32;;;1.98;;
31206;SDS011;17834;52.992;8.856;2023-01-05T01:34:36;6.70;;;1.48;;
31206;SDS011;17834;52.992;8.856;2023-01-05T01:37:03;10.57;;;1.70;;
31206;SDS011;17834;52.992;8.856;2023-01-05T01:39:29;6.78;;;1.73;;
31206;SDS011;17834;52.992;8.856;2023-01-05T01:41:56;7.28;;;1.80;;
31206;SDS011;17834;52.992;8.856;2023-01-05T01:47:08;6.45;;;1.63;;
31206;SDS011;17834;52.992;8.856;2023-01-05T01:49:34;6.88;;;1.30;;
31206;SDS011;17834;52.992;8.856;2023-01-05T01:52:00;7.35;;;1.50;;
31206;SDS011;17834;52.992;8.856;2023-01-05T01:54:26;2.55;;;1.30;;
31206;SDS011;17834;52.992;8.856;2023-01-05T01:56:52;7.63;;;1.95;;
31206;SDS011;17834;52.992;8.856;2023-01-05T01:59:20;6.40;;;1.52;;
31206;SDS011;17834;52.992;8.856;2023-01-05T02:01:47;7.70;;;1.52;;
31206;SDS011;17834;52.992;8.856;2023-01-05T02:04:14;7.88;;;1.48;;
31206;SDS011;17834;52.992;8.856;2023-01-05T02:06:40;4.63;;;1.10;;
31206;SDS011;17834;52.992;8.856;2023-01-05T02:09:06;6.38;;;1.30;;
31206;SDS011;17834;52.992;8.856;2023-01-05T02:11:35;7.43;;;1.85;;
31206;SDS011;17834;52.992;8.856;2023-01-05T02:21:43;5.30;;;1.40;;
31206;SDS011;17834;52.992;8.856;2023-01-05T02:26:56;2.38;;;1.00;;
31206;SDS011;17834;52.992;8.856;2023-01-05T02:29:29;2.75;;;0.90;;
31206;SDS011;17834;52.992;8.856;2023-01-05T02:32:16;4.05;;;1.00;;
31206;SDS011;17834;52.992;8.856;2023-01-05T02:34:46;5.65;;;1.10;;
31206;SDS011;17834;52.992;8.856;2023-01-05T02:42:10;2.70;;;0.85;;
31206;SDS011;17834;52.992;8.856;2023-01-05T02:44:38;7.68;;;1.33;;
31206;SDS011;17834;52.992;8.856;2023-01-05T02:47:05;3.90;;;1.15;;
31206;SDS011;17834;52.992;8.856;2023-01-05T02:49:36;4.75;;;1.08;;
31206;SDS011;17834;52.992;8.856;2023-01-05T02:52:04;4.70;;;1.00;;
31206;SDS011;17834;52.992;8.856;2023-01-05T02:54:36;2.55;;;1.15;;
31206;SDS011;17834;52.992;8.856;2023-01-05T02:57:06;2.38;;;1.08;;
31206;SDS011;17834;52.992;8.856;2023-01-05T02:59:44;4.97;;;1.38;;
31206;SDS011;17834;52.992;8.856;2023-01-05T03:02:15;3.80;;;1.60;;
31206;SDS011;17834;52.992;8.856;2023-01-05T03:04:44;9.27;;;1.55;;
31206;SDS011;17834;52.992;8.856;2023-01-05T03:07:12;6.30;;;1.58;;
31206;SDS011;17834;52.992;8.856;2023-01-05T03:09:38;10.77;;;2.47;;
31206;SDS011;17834;52.992;8.856;2023-01-05T03:17:30;13.25;;;2.00;;
31206;SDS011;17834;52.992;8.856;2023-01-05T03:19:56;6.45;;;2.05;;
31206;SDS011;17834;52.992;8.856;2023-01-05T03:22:24;7.97;;;2.13;;
31206;SDS011;17834;52.992;8.856;2023-01-05T03:25:10;9.80;;;2.20;;
31206;SDS011;17834;52.992;8.856;2023-01-05T03:27:55;16.92;;;2.92;;
31206;SDS011;17834;52.992;8.856;2023-01-05T03:30:56;12.98;;;2.50;;
31206;SDS011;17834;52.992;8.856;2023-01-05T03:33:44;17.45;;;2.50;;
31206;SDS011;17834;52.992;8.856;2023-01-05T03:36:35;11.98;;;2.70;;
31206;SDS011;17834;52.992;8.856;2023-01-05T03:39:03;9.70;;;2.53;;
31206;SDS011;17834;52.992;8.856;2023-01-05T03:41:30;11.32;;;2.60;;
31206;SDS011;17834;52.992;8.856;2023-01-05T03:43:56;10.90;;;2.30;;
31206;SDS011;17834;52.992;8.856;2023-01-05T03:46:22;14.40;;;2.53;;
31206;SDS011;17834;52.992;8.856;2023-01-05T03:48:48;15.25;;;2.63;;
31206;SDS011;17834;52.992;8.856;2023-01-05T03:51:15;6.75;;;1.88;;
31206;SDS011;17834;52.992;8.856;2023-01-05T03:53:41;8.20;;;2.28;;
31206;SDS011;17834;52.992;8.856;2023-01-05T03:56:07;11.93;;;2.67;;
31206;SDS011;17834;52.992;8.856;2023-01-05T03:58:33;7.40;;;1.83;;
31206;SDS011;17834;52.992;8.856;2023-01-05T04:00:59;16.30;;;2.40;;
31206;SDS011;17834;52.992;8.856;2023-01-05T04:03:25;11.65;;;2.05;;
31206;SDS011;17834;52.992;8.856;2023-01-05T04:05:51;15.68;;;2.42;;
31206;SDS011;17834;52.992;8.856;2023-01-05T04:08:17;11.27;;;1.80;;
31206;SDS011;17834;52.992;8.856;2023-01-05T04:10:43;14.40;;;1.75;;
31206;SDS011;17834;52.992;8.856;2023-01-05T04:13:09;14.32;;;2.20;;
31206;SDS011;17834;52.992;8.856;2023-01-05T04:15:36;9.90;;;2.35;;
31206;SDS011;17834;52.992;8.856;2023-01-05T04:18:02;7.57;;;2.17;;
31206;SDS011;17834;52.992;8.856;2023-01-05T04:20:28;13.68;;;2.00;;
31206;SDS011;17834;52.992;8.856;2023-01-05T04:22:54;10.93;;;1.85;;
31206;SDS011;17834;52.992;8.856;2023-01-05T04:25:20;10.27;;;1.75;;
31206;SDS011;17834;52.992;8.856;2023-01-05T04:27:46;7.45;;;1.90;;
31206;SDS011;17834;52.992;8.856;2023-01-05T04:30:11;12.25;;;2.35;;
31206;SDS011;17834;52.992;8.856;2023-01-05T04:32:37;9.32;;;1.65;;
31206;SDS011;17834;52.992;8.856;2023-01-05T04:35:04;11.05;;;1.90;;
31206;SDS011;17834;52.992;8.856;2023-01-05T04:37:30;9.60;;;2.45;;
31206;SDS011;17834;52.992;8.856;2023-01-05T04:39:56;12.43;;;2.03;;
31206;SDS011;17834;52.992;8.856;2023-01-05T04:42:22;9.80;;;2.03;;
31206;SDS011;17834;52.992;8.856;2023-01-05T04:44:49;6.25;;;2.42;;
31206;SDS011;17834;52.992;8.856;2023-01-05T04:47:14;8.07;;;1.70;;
31206;SDS011;17834;52.992;8.856;2023-01-05T04:49:40;8.43;;;1.85;;
31206;SDS011;17834;52.992;8.856;2023-01-05T04:52:06;8.77;;;2.10;;
31206;SDS011;17834;52.992;8.856;2023-01-05T04:54:32;7.30;;;1.77;;
31206;SDS011;17834;52.992;8.856;2023-01-05T04:56:58;15.00;;;2.17;;
31206;SDS011;17834;52.992;8.856;2023-01-05T04:59:24;9.43;;;1.67;;
31206;SDS011;17834;52.992;8.856;2023-01-05T05:01:50;8.23;;;2.40;;
31206;SDS011;17834;52.992;8.856;2023-01-05T05:04:16;9.50;;;1.75;;
31206;SDS011;17834;52.992;8.856;2023-01-05T05:06:42;9.88;;;1.77;;
31206;SDS011;17834;52.992;8.856;2023-01-05T05:09:08;8.25;;;1.58;;
31206;SDS011;17834;52.992;8.856;2023-01-05T05:11:34;10.13;;;2.38;;
31206;SDS011;17834;52.992;8.856;2023-01-05T05:14:00;15.70;;;2.17;;
31206;SDS011;17834;52.992;8.856;2023-01-05T05:16:26;6.97;;;2.17;;
31206;SDS011;17834;52.992;8.856;2023-01-05T05:18:52;8.55;;;1.92;;
31206;SDS011;17834;52.992;8.856;2023-01-05T05:21:18;19.25;;;3.20;;
31206;SDS011;17834;52.992;8.856;2023-01-05T05:23:44;9.60;;;1.90;;
31206;SDS011;17834;52.992;8.856;2023-01-05T05:26:10;13.85;;;2.67;;
31206;SDS011;17834;52.992;8.856;2023-01-05T05:28:36;9.77;;;2.58;;
31206;SDS011;17834;52.992;8.856;2023-01-05T05:31:02;8.15;;;2.08;;
31206;SDS011;17834;52.992;8.856;2023-01-05T05:33:28;9.57;;;2.65;;
31206;SDS011;17834;52.992;8.856;2023-01-05T05:35:54;10.52;;;2.38;;
31206;SDS011;17834;52.992;8.856;2023-01-05T05:38:20;6.10;;;2.30;;
31206;SDS011;17834;52.992;8.856;2023-01-05T05:40:49;14.23;;;2.78;;
31206;SDS011;17834;52.992;8.856;2023-01-05T05:43:15;11.50;;;2.10;;
31206;SDS011;17834;52.992;8.856;2023-01-05T05:45:41;9.98;;;2.75;;
31206;SDS011;17834;52.992;8.856;2023-01-05T05:48:07;12.32;;;2.80;;
31206;SDS011;17834;52.992;8.856;2023-01-05T05:50:33;6.95;;;2.10;;
31206;SDS011;17834;52.992;8.856;2023-01-05T05:52:59;16.98;;;3.17;;
31206;SDS011;17834;52.992;8.856;2023-01-05T05:55:25;14.93;;;2.50;;
31206;SDS011;17834;52.992;8.856;2023-01-05T05:57:51;12.55;;;2.53;;
31206;SDS011;17834;52.992;8.856;2023-01-05T06:00:17;7.80;;;2.40;;
31206;SDS011;17834;52.992;8.856;2023-01-05T06:02:43;10.20;;;2.78;;
31206;SDS011;17834;52.992;8.856;2023-01-05T06:05:09;13.32;;;2.60;;
31206;SDS011;17834;52.992;8.856;2023-01-05T06:07:35;11.77;;;3.08;;
31206;SDS011;17834;52.992;8.856;2023-01-05T06:10:01;15.00;;;2.80;;
31206;SDS011;17834;52.992;8.856;2023-01-05T06:12:27;16.33;;;2.42;;
31206;SDS011;17834;52.992;8.856;2023-01-05T06:14:53;10.75;;;2.63;;
31206;SDS011;17834;52.992;8.856;2023-01-05T06:17:22;11.65;;;3.17;;
31206;SDS011;17834;52.992;8.856;2023-01-05T06:19:47;12.93;;;2.65;;
31206;SDS011;17834;52.992;8.856;2023-01-05T06:22:13;8.88;;;2.53;;
31206;SDS011;17834;52.992;8.856;2023-01-05T06:24:39;12.90;;;2.55;;
31206;SDS011;17834;52.992;8.856;2023-01-05T06:27:05;11.27;;;3.40;;
31206;SDS011;17834;52.992;8.856;2023-01-05T06:29:31;15.70;;;2.80;;
31206;SDS011;17834;52.992;8.856;2023-01-05T06:31:57;12.20;;;2.10;;
31206;SDS011;17834;52.992;8.856;2023-01-05T06:34:23;13.38;;;2.63;;
31206;SDS011;17834;52.992;8.856;2023-01-05T06:36:49;9.10;;;2.25;;
31206;SDS011;17834;52.992;8.856;2023-01-05T06:39:15;8.57;;;2.20;;
31206;SDS011;17834;52.992;8.856;2023-01-05T06:41:41;11.80;;;2.28;;
31206;SDS011;17834;52.992;8.856;2023-01-05T06:44:07;19.92;;;3.33;;
31206;SDS011;17834;52.992;8.856;2023-01-05T06:46:33;14.20;;;3.10;;
31206;SDS011;17834;52.992;8.856;2023-01-05T06:48:59;12.27;;;2.30;;
31206;SDS011;17834;52.992;8.856;2023-01-05T06:51:25;17.77;;;2.47;;
31206;SDS011;17834;52.992;8.856;2023-01-05T06:53:51;12.85;;;2.40;;
31206;SDS011;17834;52.992;8.856;2023-01-05T06:56:17;7.85;;;2.22;;
31206;SDS011;17834;52.992;8.856;2023-01-05T06:58:43;11.52;;;3.05;;
31206;SDS011;17834;52.992;8.856;2023-01-05T07:01:09;12.43;;;2.75;;
31206;SDS011;17834;52.992;8.856;2023-01-05T07:03:35;11.07;;;2.33;;
31206;SDS011;17834;52.992;8.856;2023-01-05T07:06:01;11.10;;;2.30;;
31206;SDS011;17834;52.992;8.856;2023-01-05T07:08:28;12.68;;;2.55;;
31206;SDS011;17834;52.992;8.856;2023-01-05T07:10:54;11.40;;;2.15;;
31206;SDS011;17834;52.992;8.856;2023-01-05T07:13:20;12.57;;;2.42;;
31206;SDS011;17834;52.992;8.856;2023-01-05T07:15:46;11.32;;;2.22;;
31206;SDS011;17834;52.992;8.856;2023-01-05T07:18:12;8.35;;;2.08;;
31206;SDS011;17834;52.992;8.856;2023-01-05T07:20:38;10.90;;;2.53;;
31206;SDS011;17834;52.992;8.856;2023-01-05T07:23:04;8.02;;;2.40;;
31206;SDS011;17834;52.992;8.856;2023-01-05T07:25:29;15.90;;;2.80;;
31206;SDS011;17834;52.992;8.856;2023-01-05T07:27:57;14.88;;;3.53;;
31206;SDS011;17834;52.992;8.856;2023-01-05T07:30:23;13.02;;;2.53;;
31206;SDS011;17834;52.992;8.856;2023-01-05T07:32:49;11.05;;;2.67;;
31206;SDS011;17834;52.992;8.856;2023-01-05T07:35:15;15.90;;;2.72;;
31206;SDS011;17834;52.992;8.856;2023-01-05T07:37:41;12.02;;;3.13;;
31206;SDS011;17834;52.992;8.856;2023-01-05T07:40:08;11.35;;;3.25;;
31206;SDS011;17834;52.992;8.856;2023-01-05T07:42:34;7.00;;;1.80;;
31206;SDS011;17834;52.992;8.856;2023-01-05T07:45:00;4.25;;;1.48;;
31206;SDS011;17834;52.992;8.856;2023-01-05T07:47:26;3.33;;;1.33;;
31206;SDS011;17834;52.992;8.856;2023-01-05T07:49:52;11.95;;;2.03;;
31206;SDS011;17834;52.992;8.856;2023-01-05T07:52:18;9.00;;;1.80;;
31206;SDS011;17834;52.992;8.856;2023-01-05T07:54:44;6.63;;;1.42;;
31206;SDS011;17834;52.992;8.856;2023-01-05T07:57:10;5.22;;;1.63;;
31206;SDS011;17834;52.992;8.856;2023-01-05T07:59:36;6.55;;;1.30;;
31206;SDS011;17834;52.992;8.856;2023-01-05T08:02:02;8.57;;;1.70;;
31206;SDS011;17834;52.992;8.856;2023-01-05T08:04:28;3.97;;;2.05;;
31206;SDS011;17834;52.992;8.856;2023-01-05T08:06:54;4.90;;;1.80;;
31206;SDS011;17834;52.992;8.856;2023-01-05T08:09:20;5.22;;;1.85;;
31206;SDS011;17834;52.992;8.856;2023-01-05T08:12:05;6.75;;;1.60;;
31206;SDS011;17834;52.992;8.856;2023-01-05T08:14:31;7.47;;;1.42;;
31206;SDS011;17834;52.992;8.856;2023-01-05T08:16:57;6.10;;;1.80;;
31206;SDS011;17834;52.992;8.856;2023-01-05T08:19:23;8.65;;;2.03;;
31206;SDS011;17834;52.992;8.856;2023-01-05T08:21:49;5.68;;;1.70;;
31206;SDS011;17834;52.992;8.856;2023-01-05T08:24:15;2.45;;;1.48;;
31206;SDS011;17834;52.992;8.856;2023-01-05T08:26:41;5.78;;;1.13;;
31206;SDS011;17834;52.992;8.856;2023-01-05T08:29:07;4.22;;;1.17;;
31206;SDS011;17834;52.992;8.856;2023-01-05T08:31:33;4.40;;;1.27;;
31206;SDS011;17834;52.992;8.856;2023-01-05T08:34:01;4.18;;;1.08;;
31206;SDS011;17834;52.992;8.856;2023-01-05T08:36:27;3.53;;;1.05;;
31206;SDS011;17834;52.992;8.856;2023-01-05T08:38:55;7.10;;;1.08;;
31206;SDS011;17834;52.992;8.856;2023-01-05T08:41:22;3.17;;;1.30;;
31206;SDS011;17834;52.992;8.856;2023-01-05T08:43:49;6.57;;;0.90;;
31206;SDS011;17834;52.992;8.856;2023-01-05T08:46:15;2.92;;;1.17;;
31206;SDS011;17834;52.992;8.856;2023-01-05T08:48:41;4.57;;;1.25;;
31206;SDS011;17834;52.992;8.856;2023-01-05T08:51:07;4.72;;;1.00;;
31206;SDS011;17834;52.992;8.856;2023-01-05T08:53:33;1.80;;;1.00;;
31206;SDS011;17834;52.992;8.856;2023-01-05T08:56:00;5.97;;;1.33;;
31206;SDS011;17834;52.992;8.856;2023-01-05T08:58:26;1.70;;;1.15;;
31206;SDS011;17834;52.992;8.856;2023-01-05T09:00:52;4.43;;;1.02;;
31206;SDS011;17834;52.992;8.856;2023-01-05T09:03:18;6.18;;;1.23;;
31206;SDS011;17834;52.992;8.856;2023-01-05T09:05:44;4.95;;;0.75;;
31206;SDS011;17834;52.992;8.856;2023-01-05T09:08:10;2.55;;;0.90;;
31206;SDS011;17834;52.992;8.856;2023-01-05T09:10:36;1.42;;;0.88;;
31206;SDS011;17834;52.992;8.856;2023-01-05T09:13:02;4.97;;;1.00;;
31206;SDS011;17834;52.992;8.856;2023-01-05T09:15:28;2.95;;;0.80;;
31206;SDS011;17834;52.992;8.856;2023-01-05T09:17:55;3.08;;;0.90;;
31206;SDS011;17834;52.992;8.856;2023-01-05T09:20:21;4.13;;;1.00;;
31206;SDS011;17834;52.992;8.856;2023-01-05T09:22:48;4.80;;;1.10;;
31206;SDS011;17834;52.992;8.856;2023-01-05T09:25:14;6.35;;;1.13;;
31206;SDS011;17834;52.992;8.856;2023-01-05T09:27:40;4.35;;;1.25;;
31206;SDS011;17834;52.992;8.856;2023-01-05T09:30:06;6.15;;;1.25;;
31206;SDS011;17834;52.992;8.856;2023-01-05T09:32:35;4.18;;;1.08;;
31206;SDS011;17834;52.992;8.856;2023-01-05T09:35:01;3.42;;;1.00;;
31206;SDS011;17834;52.992;8.856;2023-01-05T09:37:27;4.38;;;1.40;;
31206;SDS011;17834;52.992;8.856;2023-01-05T09:39:53;2.83;;;1.10;;
31206;SDS011;17834;52.992;8.856;2023-01-05T09:42:19;2.05;;;0.90;;
31206;SDS011;17834;52.992;8.856;2023-01-05T09:44:49;4.93;;;0.73;;
31206;SDS011;17834;52.992;8.856;2023-01-05T09:47:19;2.22;;;0.90;;
31206;SDS011;17834;52.992;8.856;2023-01-05T09:49:47;3.95;;;0.82;;
31206;SDS011;17834;52.992;8.856;2023-01-05T09:52:14;5.50;;;1.08;;
31206;SDS011;17834;52.992;8.856;2023-01-05T09:54:40;3.90;;;1.08;;
31206;SDS011;17834;52.992;8.856;2023-01-05T09:57:11;6.15;;;1.17;;
31206;SDS011;17834;52.992;8.856;2023-01-05T09:59:46;4.13;;;1.00;;
31206;SDS011;17834;52.992;8.856;2023-01-05T10:02:24;6.07;;;2.08;;
31206;SDS011;17834;52.992;8.856;2023-01-05T10:04:52;3.00;;;0.90;;
31206;SDS011;17834;52.992;8.856;2023-01-05T10:08:06;3.95;;;1.20;;
31206;SDS011;17834;52.992;8.856;2023-01-05T10:10:07;3.90;;;1.17;;
31206;SDS011;17834;52.992;8.856;2023-01-05T10:12:44;2.42;;;0.95;;
31206;SDS011;17834;52.992;8.856;2023-01-05T10:15:28;10.07;;;1.80;;
31206;SDS011;17834;52.992;8.856;2023-01-05T10:17:56;4.32;;;1.33;;
31206;SDS011;17834;52.992;8.856;2023-01-05T10:20:42;3.05;;;1.00;;
31206;SDS011;17834;52.992;8.856;2023-01-05T10:28:49;6.47;;;1.23;;
31206;SDS011;17834;52.992;8.856;2023-01-05T10:31:23;8.48;;;1.77;;
31206;SDS011;17834;52.992;8.856;2023-01-05T10:33:56;4.80;;;1.27;;
31206;SDS011;17834;52.992;8.856;2023-01-05T10:36:33;5.63;;;1.20;;
31206;SDS011;17834;52.992;8.856;2023-01-05T10:39:09;5.10;;;0.90;;
31206;SDS011;17834;52.992;8.856;2023-01-05T10:44:20;4.65;;;1.27;;
31206;SDS011;17834;52.992;8.856;2023-01-05T10:46:53;8.60;;;1.20;;
31206;SDS011;17834;52.992;8.856;2023-01-05T10:49:27;9.50;;;1.17;;
31206;SDS011;17834;52.992;8.856;2023-01-05T10:51:54;6.55;;;1.17;;
31206;SDS011;17834;52.992;8.856;2023-01-05T10:54:35;6.18;;;1.30;;
31206;SDS011;17834;52.992;8.856;2023-01-05T10:57:28;1.98;;;0.80;;
31206;SDS011;17834;52.992;8.856;2023-01-05T11:00:10;4.78;;;0.90;;
31206;SDS011;17834;52.992;8.856;2023-01-05T11:02:38;3.03;;;1.42;;
31206;SDS011;17834;52.992;8.856;2023-01-05T11:05:06;6.38;;;1.05;;
31206;SDS011;17834;52.992;8.856;2023-01-05T11:07:47;5.40;;;1.13;;
31206;SDS011;17834;52.992;8.856;2023-01-05T11:10:27;7.72;;;1.02;;
31206;SDS011;17834;52.992;8.856;2023-01-05T11:12:59;6.22;;;1.13;;
31206;SDS011;17834;52.992;8.856;2023-01-05T11:15:26;1.90;;;0.75;;
31206;SDS011;17834;52.992;8.856;2023-01-05T11:17:52;1.88;;;0.65;;
31206;SDS011;17834;52.992;8.856;2023-01-05T11:20:19;3.88;;;0.88;;
31206;SDS011;17834;52.992;8.856;2023-01-05T11:22:45;5.15;;;0.80;;
31206;SDS011;17834;52.992;8.856;2023-01-05T11:25:25;1.83;;;0.60;;
31206;SDS011;17834;52.992;8.856;2023-01-05T11:30:37;2.78;;;0.70;;
31206;SDS011;17834;52.992;8.856;2023-01-05T11:33:20;6.18;;;1.20;;
31206;SDS011;17834;52.992;8.856;2023-01-05T11:35:48;6.38;;;0.88;;
31206;SDS011;17834;52.992;8.856;2023-01-05T11:38:24;4.95;;;0.82;;
31206;SDS011;17834;52.992;8.856;2023-01-05T11:40:51;6.03;;;0.85;;
31206;SDS011;17834;52.992;8.856;2023-01-05T11:43:19;7.65;;;1.00;;
31206;SDS011;17834;52.992;8.856;2023-01-05T11:45:48;5.15;;;1.05;;
31206;SDS011;17834;52.992;8.856;2023-01-05T11:48:17;5.65;;;1.00;;
31206;SDS011;17834;52.992;8.856;2023-01-05T11:50:45;5.38;;;1.40;;
31206;SDS011;17834;52.992;8.856;2023-01-05T11:56:00;6.90;;;1.20;;
31206;SDS011;17834;52.992;8.856;2023-01-05T11:58:29;2.78;;;1.10;;
31206;SDS011;17834;52.992;8.856;2023-01-05T12:05:59;6.18;;;1.42;;
31206;SDS011;17834;52.992;8.856;2023-01-05T12:11:11;6.00;;;1.95;;
31206;SDS011;17834;52.992;8.856;2023-01-05T12:30:00;3.97;;;1.15;;
31206;SDS011;17834;52.992;8.856;2023-01-05T12:32:35;5.05;;;0.77;;
31206;SDS011;17834;52.992;8.856;2023-01-05T12:35:15;5.90;;;0.90;;
31206;SDS011;17834;52.992;8.856;2023-01-05T12:43:20;5.60;;;0.90;;
31206;SDS011;17834;52.992;8.856;2023-01-05T12:50:56;7.35;;;1.00;;
31206;SDS011;17834;52.992;8.856;2023-01-05T12:55:52;8.35;;;1.30;;
31206;SDS011;17834;52.992;8.856;2023-01-05T12:58:31;2.85;;;0.75;;
31206;SDS011;17834;52.992;8.856;2023-01-05T13:00:57;6.18;;;0.90;;
31206;SDS011;17834;52.992;8.856;2023-01-05T13:03:27;4.13;;;0.93;;
31206;SDS011;17834;52.992;8.856;2023-01-05T13:08:37;2.92;;;0.88;;
31206;SDS011;17834;52.992;8.856;2023-01-05T13:11:06;1.50;;;0.82;;
31206;SDS011;17834;52.992;8.856;2023-01-05T13:13:34;3.85;;;1.02;;
31206;SDS011;17834;52.992;8.856;2023-01-05T13:18:51;5.75;;;1.08;;
31206;SDS011;17834;52.992;8.856;2023-01-05T13:21:19;7.15;;;1.02;;
31206;SDS011;17834;52.992;8.856;2023-01-05T13:23:56;3.38;;;1.08;;
31206;SDS011;17834;52.992;8.856;2023-01-05T13:26:24;5.60;;;1.27;;
31206;SDS011;17834;52.992;8.856;2023-01-05T13:28:51;3.67;;;0.73;;
31206;SDS011;17834;52.992;8.856;2023-01-05T13:31:39;2.55;;;0.93;;
31206;SDS011;17834;52.992;8.856;2023-01-05T13:34:23;6.50;;;0.90;;
31206;SDS011;17834;52.992;8.856;2023-01-05T13:39:28;4.85;;;1.10;;
31206;SDS011;17834;52.992;8.856;2023-01-05T13:47:19;6.15;;;1.10;;
31206;SDS011;17834;52.992;8.856;2023-01-05T13:49:54;5.72;;;0.98;;
31206;SDS011;17834;52.992;8.856;2023-01-05T13:54:53;2.17;;;1.00;;
31206;SDS011;17834;52.992;8.856;2023-01-05T13:57:25;6.80;;;1.20;;
31206;SDS011;17834;52.992;8.856;2023-01-05T13:59:54;2.55;;;0.80;;
31206;SDS011;17834;52.992;8.856;2023-01-05T14:02:33;6.80;;;1.45;;
31206;SDS011;17834;52.992;8.856;2023-01-05T14:05:02;1.95;;;1.05;;
31206;SDS011;17834;52.992;8.856;2023-01-05T14:07:29;6.07;;;1.13;;
31206;SDS011;17834;52.992;8.856;2023-01-05T14:09:55;3.50;;;1.30;;
31206;SDS011;17834;52.992;8.856;2023-01-05T14:12:23;2.85;;;1.08;;
31206;SDS011;17834;52.992;8.856;2023-01-05T14:14:59;3.80;;;0.80;;
31206;SDS011;17834;52.992;8.856;2023-01-05T14:22:55;3.20;;;1.10;;
31206;SDS011;17834;52.992;8.856;2023-01-05T14:30:40;6.70;;;1.00;;
31206;SDS011;17834;52.992;8.856;2023-01-05T14:33:06;2.40;;;1.02;;
31206;SDS011;17834;52.992;8.856;2023-01-05T14:35:34;3.58;;;0.93;;
31206;SDS011;17834;52.992;8.856;2023-01-05T14:38:14;5.50;;;1.17;;
31206;SDS011;17834;52.992;8.856;2023-01-05T14:40:45;2.95;;;0.98;;
31206;SDS011;17834;52.992;8.856;2023-01-05T14:45:55;4.97;;;0.98;;
31206;SDS011;17834;52.992;8.856;2023-01-05T14:48:29;7.20;;;1.00;;
31206;SDS011;17834;52.992;8.856;2023-01-05T14:51:14;4.30;;;1.60;;
31206;SDS011;17834;52.992;8.856;2023-01-05T14:53:42;2.97;;;1.25;;
31206;SDS011;17834;52.992;8.856;2023-01-05T14:56:13;4.78;;;1.20;;
31206;SDS011;17834;52.992;8.856;2023-01-05T15:01:16;3.75;;;1.15;;
31206;SDS011;17834;52.992;8.856;2023-01-05T15:14:49;6.32;;;1.23;;
31206;SDS011;17834;52.992;8.856;2023-01-05T15:22:45;5.85;;;1.10;;
31206;SDS011;17834;52.992;8.856;2023-01-05T15:28:01;3.22;;;1.05;;
31206;SDS011;17834;52.992;8.856;2023-01-05T15:33:06;3.58;;;1.30;;
31206;SDS011;17834;52.992;8.856;2023-01-05T15:35:37;3.28;;;0.93;;
31206;SDS011;17834;52.992;8.856;2023-01-05T15:40:43;6.50;;;1.52;;
31206;SDS011;17834;52.992;8.856;2023-01-05T15:43:13;2.97;;;1.13;;
31206;SDS011;17834;52.992;8.856;2023-01-05T15:45:40;5.30;;;1.30;;
31206;SDS011;17834;52.992;8.856;2023-01-05T15:48:13;3.33;;;0.95;;
31206;SDS011;17834;52.992;8.856;2023-01-05T15:53:05;5.68;;;1.40;;
31206;SDS011;17834;52.992;8.856;2023-01-05T15:55:31;3.13;;;0.90;;
31206;SDS011;17834;52.992;8.856;2023-01-05T15:57:58;3.92;;;1.08;;
31206;SDS011;17834;52.992;8.856;2023-01-05T16:00:29;4.65;;;1.23;;
31206;SDS011;17834;52.992;8.856;2023-01-05T16:02:55;4.32;;;1.10;;
31206;SDS011;17834;52.992;8.856;2023-01-05T16:05:25;2.72;;;1.05;;
31206;SDS011;17834;52.992;8.856;2023-01-05T16:07:55;3.72;;;1.10;;
31206;SDS011;17834;52.992;8.856;2023-01-05T16:10:39;4.15;;;1.15;;
31206;SDS011;17834;52.992;8.856;2023-01-05T16:15:33;4.78;;;1.60;;
31206;SDS011;17834;52.992;8.856;2023-01-05T16:17:59;9.32;;;1.88;;
31206;SDS011;17834;52.992;8.856;2023-01-05T16:20:26;4.93;;;1.45;;
31206;SDS011;17834;52.992;8.856;2023-01-05T16:25:22;4.53;;;1.90;;
31206;SDS011;17834;52.992;8.856;2023-01-05T16:27:50;6.88;;;1.60;;
31206;SDS011;17834;52.992;8.856;2023-01-05T16:30:35;7.82;;;1.77;;
31206;SDS011;17834;52.992;8.856;2023-01-05T16:33:15;4.85;;;1.50;;
31206;SDS011;17834;52.992;8.856;2023-01-05T16:35:45;10.13;;;1.60;;
31206;SDS011;17834;52.992;8.856;2023-01-05T16:40:39;2.63;;;1.42;;
31206;SDS011;17834;52.992;8.856;2023-01-05T16:43:31;5.38;;;1.33;;
31206;SDS011;17834;52.992;8.856;2023-01-05T16:46:43;2.75;;;1.45;;
31206;SDS011;17834;52.992;8.856;2023-01-05T16:48:57;4.70;;;1.45;;
31206;SDS011;17834;52.992;8.856;2023-01-05T16:51:35;3.88;;;1.35;;
31206;SDS011;17834;52.992;8.856;2023-01-05T16:54:03;4.60;;;2.22;;
31206;SDS011;17834;52.992;8.856;2023-01-05T16:58:59;6.32;;;1.70;;
31206;SDS011;17834;52.992;8.856;2023-01-05T17:01:41;4.15;;;1.58;;
31206;SDS011;17834;52.992;8.856;2023-01-05T17:04:09;3.53;;;1.70;;
31206;SDS011;17834;52.992;8.856;2023-01-05T17:06:35;4.03;;;1.98;;
31206;SDS011;17834;52.992;8.856;2023-01-05T17:09:01;6.03;;;1.92;;
31206;SDS011;17834;52.992;8.856;2023-01-05T17:11:33;3.83;;;2.25;;
31206;SDS011;17834;52.992;8.856;2023-01-05T17:13:59;6.25;;;1.90;;
31206;SDS011;17834;52.992;8.856;2023-01-05T17:16:26;4.25;;;1.88;;